createdAt,value
2023-05-14T05:21:34.632Z,96536.75
2023-05-14T07:10:15.058Z,96533.28
2023-05-14T07:12:22.707Z,96530.06
2023-05-14T07:14:36.003Z,96528.00
2023-05-14T07:15:37.441Z,96534.22
2023-05-14T07:17:42.308Z,96520.91
2023-05-14T07:18:45.348Z,96530.03
2023-05-14T07:19:47.202Z,96527.75
2023-05-14T07:20:48.778Z,96529.22
2023-05-14T07:21:50.982Z,96527.28
2023-05-14T07:22:52.949Z,96536.44
2023-05-14T07:23:54.325Z,96529.19
2023-05-14T07:24:55.696Z,96531.56
2023-05-14T07:25:57.093Z,96531.69
2023-05-14T07:28:04.770Z,96522.63
2023-05-14T07:29:06.241Z,96522.53
2023-05-14T07:30:08.782Z,96518.66
2023-05-14T07:31:10.219Z,96514.22
2023-05-14T07:32:13.965Z,96521.56
2023-05-14T07:33:16.995Z,96522.28
2023-05-14T07:34:19.335Z,96514.19
2023-05-14T07:35:20.820Z,96518.91
2023-05-14T07:36:22.294Z,96513.78
2023-05-14T07:37:25.802Z,96513.75
2023-05-14T07:38:27.508Z,96520.09
2023-05-14T07:39:28.867Z,96515.97
2023-05-14T07:40:30.252Z,96517.38
2023-05-14T07:41:31.646Z,96519.91
2023-05-14T07:42:36.756Z,96509.78
2023-05-14T07:43:40.614Z,96509.38
2023-05-14T07:44:42.044Z,96519.38
2023-05-14T07:45:43.530Z,96515.38
2023-05-14T07:46:44.932Z,96510.88
2023-05-14T07:47:46.682Z,96509.19
2023-05-14T07:48:48.217Z,96511.66
2023-05-14T07:49:49.652Z,96513.84
2023-05-14T07:50:51.527Z,96516.69
2023-05-14T07:51:52.940Z,96513.47
2023-05-14T07:52:54.490Z,96518.84
2023-05-14T07:53:56.052Z,96513.13
2023-05-14T07:54:57.542Z,96508.66
2023-05-14T07:56:00.024Z,96511.59
2023-05-14T07:57:01.450Z,96512.09
2023-05-14T07:58:02.865Z,96515.13
2023-05-14T07:59:04.378Z,96508.28
2023-05-14T08:00:10.332Z,96517.25
2023-05-14T08:01:12.760Z,96504.34
2023-05-14T08:02:15.916Z,96520.66
2023-05-14T08:03:17.558Z,96511.47
2023-05-14T08:04:19.191Z,96515.53
2023-05-14T08:05:20.811Z,96511.06
2023-05-14T08:06:23.598Z,96512.03
2023-05-14T08:07:25.477Z,96511.88
2023-05-14T08:08:27.651Z,96503.06
2023-05-14T08:09:29.148Z,96510.59
2023-05-14T08:10:31.369Z,96510.78
2023-05-14T08:11:32.763Z,96511.72
2023-05-14T08:12:34.296Z,96515.94
2023-05-14T08:13:35.638Z,96510.22
2023-05-14T08:14:37.256Z,96508.06
2023-05-14T08:15:38.749Z,96515.75
2023-05-14T08:16:40.163Z,96517.16
2023-05-14T08:17:41.589Z,96505.25
2023-05-14T08:18:43.074Z,96509.56
2023-05-14T08:19:44.520Z,96507.22
2023-05-14T08:20:45.951Z,96512.47
2023-05-14T08:21:47.354Z,96506.81
2023-05-14T08:22:48.769Z,96513.38
2023-05-14T08:23:50.132Z,96503.56
2023-05-14T08:24:51.575Z,96508.97
2023-05-14T08:25:52.915Z,96508.59
2023-05-14T08:26:55.017Z,96513.38
2023-05-14T08:27:56.688Z,96513.00
2023-05-14T08:28:58.190Z,96510.38
2023-05-14T08:29:59.595Z,96508.19
2023-05-14T08:31:01.016Z,96499.81
2023-05-14T08:32:08.755Z,96500.59
2023-05-14T08:33:13.652Z,96503.28
2023-05-14T08:34:15.014Z,96496.22
2023-05-14T08:35:17.475Z,96503.75
2023-05-14T08:36:18.852Z,96505.16
2023-05-14T08:37:20.443Z,96502.94
2023-05-14T08:38:21.833Z,96504.13
2023-05-14T08:39:23.264Z,96505.31
2023-05-14T08:40:24.928Z,96500.22
2023-05-14T08:41:26.606Z,96502.16
2023-05-14T08:42:29.104Z,96505.09
2023-05-14T08:43:44.005Z,96505.69
2023-05-14T08:44:53.082Z,96497.41
2023-05-14T08:45:58.700Z,96493.53
2023-05-14T08:47:00.691Z,96496.69
2023-05-14T08:48:05.589Z,96495.06
2023-05-14T08:49:30.494Z,96501.84
2023-05-14T08:50:32.235Z,96496.00
2023-05-14T08:51:33.810Z,96489.34
2023-05-14T08:52:35.329Z,96489.63
2023-05-14T08:53:38.276Z,96483.88
2023-05-14T08:54:42.681Z,96486.09
2023-05-14T08:55:46.035Z,96488.88
2023-05-14T08:56:48.182Z,96490.28
2023-05-14T08:57:50.363Z,96488.72
2023-05-14T08:58:51.707Z,96476.69
2023-05-14T08:59:53.944Z,96487.81
2023-05-14T09:00:56.096Z,96497.38
2023-05-14T09:02:02.024Z,96486.28
2023-05-14T09:03:05.434Z,96484.75
2023-05-14T09:04:08.533Z,96487.03
2023-05-14T09:05:10.191Z,96480.50
2023-05-14T09:06:13.964Z,96497.38
2023-05-14T09:07:15.918Z,96491.34
2023-05-14T09:08:17.523Z,96485.69
2023-05-14T09:09:22.355Z,96490.78
2023-05-14T09:10:23.901Z,96475.91
2023-05-14T09:11:25.595Z,96483.06
2023-05-14T09:12:27.172Z,96483.66
2023-05-14T09:13:28.520Z,96475.06
2023-05-14T09:14:29.982Z,96475.69
2023-05-14T09:15:32.795Z,96484.22
2023-05-14T09:16:36.847Z,96477.41
2023-05-14T09:17:38.420Z,96484.72
2023-05-14T09:18:44.793Z,96480.84
2023-05-14T09:19:52.855Z,96472.38
2023-05-14T09:20:54.625Z,96478.13
2023-05-14T09:21:59.024Z,96487.25
2023-05-14T09:23:01.660Z,96478.34
2023-05-14T09:24:03.909Z,96479.63
2023-05-14T09:25:09.278Z,96447.97
2023-05-14T09:26:11.831Z,96471.91
2023-05-14T09:27:20.711Z,96467.03
2023-05-14T09:28:22.768Z,96471.38
2023-05-14T09:29:26.337Z,96473.47
2023-05-14T09:30:27.853Z,96473.69
2023-05-14T09:31:33.487Z,96465.06
2023-05-14T09:32:40.302Z,96471.31
2023-05-14T09:33:41.770Z,96468.44
2023-05-14T09:34:43.424Z,96474.50
2023-05-14T09:35:44.911Z,96459.75
2023-05-14T09:36:46.320Z,96457.69
2023-05-14T09:37:50.321Z,96466.19
2023-05-14T09:38:51.792Z,96469.38
2023-05-14T09:39:53.226Z,96458.88
2023-05-14T09:40:54.620Z,96462.88
2023-05-14T09:41:56.580Z,96468.25
2023-05-14T09:42:58.190Z,96457.25
2023-05-14T09:44:02.414Z,96466.16
2023-05-14T09:45:05.312Z,96465.78
2023-05-14T09:46:06.920Z,96467.22
2023-05-14T09:47:08.390Z,96461.19
2023-05-14T09:48:10.421Z,96462.78
2023-05-14T09:49:12.032Z,96463.94
2023-05-14T09:50:13.618Z,96459.44
2023-05-14T09:51:15.773Z,96459.78
2023-05-14T09:52:19.200Z,96465.13
2023-05-14T09:53:20.755Z,96459.06
2023-05-14T09:54:22.352Z,96461.25
2023-05-14T09:55:23.946Z,96418.88
2023-05-14T09:56:25.905Z,96450.56
2023-05-14T09:57:27.527Z,96447.34
2023-05-14T09:58:29.641Z,96452.84
2023-05-14T09:59:31.006Z,96455.91
2023-05-14T10:00:33.715Z,96450.56
2023-05-14T10:01:36.053Z,96452.19
2023-05-14T10:02:38.692Z,96461.00
2023-05-14T10:03:40.941Z,96450.84
2023-05-14T10:04:43.716Z,96449.44
2023-05-14T10:05:46.243Z,96453.81
2023-05-14T10:06:51.183Z,96447.75
2023-05-14T10:07:54.524Z,96454.56
2023-05-14T10:09:01.269Z,96451.00
2023-05-14T10:10:07.830Z,96455.81
2023-05-14T10:11:14.006Z,96455.44
2023-05-14T10:12:19.924Z,96450.91
2023-05-14T10:13:24.721Z,96453.44
2023-05-14T10:14:38.058Z,96443.41
2023-05-14T10:15:50.957Z,96464.22
2023-05-14T10:16:53.504Z,96455.41
2023-05-14T10:17:58.585Z,96457.22
2023-05-14T10:19:09.732Z,96455.00
2023-05-14T10:20:16.607Z,96459.00
2023-05-14T10:21:21.682Z,96460.88
2023-05-14T10:22:25.681Z,96455.59
2023-05-14T10:23:27.299Z,96460.25
2023-05-14T10:24:29.870Z,96451.56
2023-05-14T10:25:31.935Z,96450.16
2023-05-14T10:26:39.371Z,96444.19
2023-05-14T10:27:42.293Z,96453.22
2023-05-14T10:28:44.110Z,96449.81
2023-05-14T10:29:53.795Z,96444.41
2023-05-14T10:30:55.623Z,96455.81
2023-05-14T10:31:57.022Z,96456.03
2023-05-14T10:33:18.409Z,96458.31
2023-05-14T10:34:37.512Z,96456.41
2023-05-14T10:35:56.014Z,96445.94
2023-05-14T10:37:02.092Z,96449.59
2023-05-14T10:38:08.277Z,96446.88
2023-05-14T10:39:09.927Z,96449.09
2023-05-14T10:40:12.420Z,96447.09
2023-05-14T10:41:21.536Z,96447.19
2023-05-14T10:42:33.394Z,96443.41
2023-05-14T10:43:37.661Z,96448.44
2023-05-14T10:44:47.030Z,96448.19
2023-05-14T10:45:48.467Z,96443.63
2023-05-14T10:46:50.098Z,96438.75
2023-05-14T10:47:52.068Z,96440.97
2023-05-14T10:48:53.746Z,96444.31
2023-05-14T10:50:00.498Z,96446.69
2023-05-14T10:51:05.187Z,96430.75
2023-05-14T10:52:09.210Z,96431.31
2023-05-14T10:53:13.399Z,96433.97
2023-05-14T10:54:16.499Z,96433.41
2023-05-14T10:55:18.208Z,96431.59
2023-05-14T10:56:19.938Z,96431.72
2023-05-14T10:57:23.525Z,96432.81
2023-05-14T10:58:24.896Z,96430.69
2023-05-14T10:59:29.467Z,96426.22
2023-05-14T11:00:34.278Z,96421.94
2023-05-14T11:01:35.818Z,96425.72
2023-05-14T11:02:41.999Z,96422.09
2023-05-14T11:03:46.068Z,96423.88
2023-05-14T11:05:03.919Z,96424.47
2023-05-14T11:06:07.055Z,96409.88
2023-05-14T11:07:08.650Z,96415.19
2023-05-14T11:08:11.512Z,96413.66
2023-05-14T11:09:13.323Z,96411.75
2023-05-14T11:10:16.873Z,96410.50
2023-05-14T11:11:19.233Z,96405.81
2023-05-14T11:12:21.186Z,96406.19
2023-05-14T11:13:22.570Z,96412.44
2023-05-14T11:14:24.217Z,96400.66
2023-05-14T11:15:26.534Z,96405.97
2023-05-14T11:16:30.751Z,96405.47
2023-05-14T11:17:32.697Z,96406.56
2023-05-14T11:18:38.413Z,96403.00
2023-05-14T11:19:43.496Z,96404.22
2023-05-14T11:20:44.877Z,96395.25
2023-05-14T11:21:46.290Z,96399.25
2023-05-14T11:22:49.142Z,96401.66
2023-05-14T11:23:50.608Z,96398.63
2023-05-14T11:24:52.165Z,96399.84
2023-05-14T11:25:55.038Z,96396.91
2023-05-14T11:26:56.460Z,96406.31
2023-05-14T11:27:58.542Z,96397.03
2023-05-14T11:29:00.033Z,96408.63
2023-05-14T11:30:03.149Z,96411.09
2023-05-14T11:31:05.651Z,96399.50
2023-05-14T11:32:07.547Z,96399.78
2023-05-14T11:33:09.245Z,96394.84
2023-05-14T11:34:10.696Z,96397.63
2023-05-14T11:35:12.951Z,96395.91
2023-05-14T11:36:14.784Z,96393.28
2023-05-14T11:37:17.187Z,96397.19
2023-05-14T11:38:20.390Z,96401.53
2023-05-14T11:39:21.760Z,96403.09
2023-05-14T11:40:23.452Z,96404.66
2023-05-14T11:41:26.215Z,96401.66
2023-05-14T11:42:27.702Z,96405.81
2023-05-14T11:43:29.308Z,96392.72
2023-05-14T11:44:32.334Z,96382.50
2023-05-14T11:45:33.757Z,96403.44
2023-05-14T11:46:35.517Z,96399.97
2023-05-14T11:47:37.399Z,96400.81
2023-05-14T11:48:38.847Z,96397.06
2023-05-14T11:49:40.275Z,96401.16
2023-05-14T11:50:45.602Z,96401.78
2023-05-14T11:51:47.184Z,96401.06
2023-05-14T11:52:50.702Z,96399.31
2023-05-14T11:53:53.955Z,96395.94
2023-05-14T11:54:55.381Z,96396.38
2023-05-14T11:55:59.834Z,96397.38
2023-05-14T11:57:10.136Z,96402.81
2023-05-14T11:58:12.562Z,96398.25
2023-05-14T11:59:14.218Z,96402.84
2023-05-14T12:00:21.456Z,96389.38
2023-05-14T12:01:23.523Z,96400.34
2023-05-14T12:02:28.385Z,96400.56
2023-05-14T12:03:30.928Z,96399.06
2023-05-14T12:04:32.766Z,96398.88
2023-05-14T12:05:37.903Z,96388.78
2023-05-14T12:06:39.846Z,96396.44
2023-05-14T12:07:45.035Z,96403.56
2023-05-14T12:08:48.187Z,96390.38
2023-05-14T12:09:49.959Z,96396.25
2023-05-14T12:10:53.113Z,96396.50
2023-05-14T12:11:54.480Z,96392.13
2023-05-14T12:12:55.928Z,96389.16
2023-05-14T12:13:57.833Z,96381.59
2023-05-14T12:14:59.791Z,96385.06
2023-05-14T12:16:02.389Z,96383.13
2023-05-14T12:17:04.181Z,96384.69
2023-05-14T12:18:22.978Z,96370.06
2023-05-14T12:19:25.975Z,96377.22
2023-05-14T12:20:29.663Z,96371.56
2023-05-14T12:21:32.449Z,96375.72
2023-05-14T12:22:36.899Z,96363.69
2023-05-14T12:23:38.934Z,96367.53
2023-05-14T12:24:40.393Z,96372.69
2023-05-14T12:25:50.479Z,96366.44
2023-05-14T12:26:52.810Z,96370.84
2023-05-14T12:27:54.190Z,96371.72
2023-05-14T12:29:03.578Z,96372.16
2023-05-14T12:30:20.760Z,96371.94
2023-05-14T12:31:32.103Z,96375.75
2023-05-14T12:32:35.016Z,96365.19
2023-05-14T12:33:36.471Z,96373.09
2023-05-14T12:34:38.562Z,96362.19
2023-05-14T12:35:40.168Z,96370.31
2023-05-14T12:36:42.072Z,96369.47
2023-05-14T12:37:43.553Z,96368.19
2023-05-14T12:38:44.915Z,96368.69
2023-05-14T12:39:46.363Z,96367.06
2023-05-14T12:40:47.811Z,96368.94
2023-05-14T12:41:49.147Z,96373.56
2023-05-14T12:42:50.834Z,96364.00
2023-05-14T12:43:52.304Z,96371.66
2023-05-14T12:44:53.659Z,96369.53
2023-05-14T12:45:55.357Z,96362.91
2023-05-14T12:46:57.671Z,96365.50
2023-05-14T12:47:59.298Z,96359.72
2023-05-14T12:49:01.097Z,96370.63
2023-05-14T12:50:02.446Z,96370.09
2023-05-14T12:51:04.593Z,96366.75
2023-05-14T12:52:22.810Z,96368.25
2023-05-14T12:53:28.065Z,96361.50
2023-05-14T12:54:30.896Z,96358.56
2023-05-14T12:55:34.225Z,96346.31
2023-05-14T12:56:37.644Z,96355.25
2023-05-14T12:57:39.600Z,96344.50
2023-05-14T12:58:41.286Z,96352.50
2023-05-14T12:59:43.039Z,96357.22
2023-05-14T13:00:44.608Z,96350.69
2023-05-14T13:01:46.102Z,96354.25
2023-05-14T13:02:47.566Z,96356.53
2023-05-14T13:03:49.725Z,96361.00
2023-05-14T13:04:51.159Z,96355.59
2023-05-14T13:05:53.862Z,96344.22
2023-05-14T13:06:55.484Z,96344.16
2023-05-14T13:07:59.667Z,96361.47
2023-05-14T13:09:02.364Z,96357.09
2023-05-14T13:10:05.794Z,96353.53
2023-05-14T13:11:08.300Z,96352.50
2023-05-14T13:12:09.835Z,96353.41
2023-05-14T13:13:11.721Z,96349.50
2023-05-14T13:14:13.687Z,96354.34
2023-05-14T13:15:15.530Z,96344.19
2023-05-14T13:16:17.160Z,96352.50
2023-05-14T13:17:18.640Z,96351.59
2023-05-14T13:18:20.020Z,96345.97
2023-05-14T13:19:21.413Z,96344.56
2023-05-14T13:20:23.569Z,96355.53
2023-05-14T13:21:25.258Z,96340.63
2023-05-14T13:22:26.650Z,96343.81
2023-05-14T13:23:28.055Z,96339.53
2023-05-14T13:24:29.424Z,96312.19
2023-05-14T13:25:30.844Z,96336.91
2023-05-14T13:26:32.256Z,96338.56
2023-05-14T13:27:35.734Z,96342.75
2023-05-14T13:28:37.102Z,96341.31
2023-05-14T13:29:38.566Z,96340.16
2023-05-14T13:30:40.090Z,96344.50
2023-05-14T13:31:41.458Z,96342.06
2023-05-14T13:32:42.882Z,96343.91
2023-05-14T13:33:45.226Z,96335.25
2023-05-14T13:34:46.682Z,96343.56
2023-05-14T13:35:48.218Z,96343.59
2023-05-14T13:36:50.651Z,96340.91
2023-05-14T13:37:52.185Z,96334.50
2023-05-14T13:38:53.596Z,96327.09
2023-05-14T13:39:55.046Z,96323.97
2023-05-14T13:41:01.680Z,96322.75
2023-05-14T13:42:03.243Z,96327.47
2023-05-14T13:43:04.697Z,96328.88
2023-05-14T13:44:06.188Z,96325.63
2023-05-14T13:45:08.495Z,96322.28
2023-05-14T13:46:09.913Z,96320.47
2023-05-14T13:47:11.285Z,96323.59
2023-05-14T13:48:12.845Z,96313.78
2023-05-14T13:49:14.253Z,96314.38
2023-05-14T13:50:16.330Z,96317.13
2023-05-14T13:51:17.746Z,96320.81
2023-05-14T13:52:19.225Z,96315.19
2023-05-14T13:53:22.836Z,96316.88
2023-05-14T13:54:24.370Z,96317.63
2023-05-14T13:55:25.956Z,96310.16
2023-05-14T13:56:27.500Z,96314.22
2023-05-14T13:57:28.844Z,96314.97
2023-05-14T13:58:30.401Z,96314.47
2023-05-14T13:59:31.846Z,96297.06
2023-05-14T14:00:34.197Z,96306.28
2023-05-14T14:01:35.629Z,96305.31
2023-05-14T14:02:37.087Z,96303.13
2023-05-14T14:03:38.507Z,96293.47
2023-05-14T14:04:40.032Z,96294.50
2023-05-14T14:05:41.661Z,96295.28
2023-05-14T14:06:43.508Z,96302.31
2023-05-14T14:07:45.182Z,96292.63
2023-05-14T14:08:47.395Z,96295.56
2023-05-14T14:09:48.814Z,96291.00
2023-05-14T14:10:50.773Z,96291.19
2023-05-14T14:11:52.182Z,96284.84
2023-05-14T14:12:53.708Z,96287.28
2023-05-14T14:13:55.289Z,96298.84
2023-05-14T14:14:56.677Z,96290.31
2023-05-14T14:15:58.248Z,96288.06
2023-05-14T14:16:59.607Z,96288.09
2023-05-14T14:18:01.071Z,96286.03
2023-05-14T14:19:02.543Z,96287.41
2023-05-14T14:20:05.868Z,96289.38
2023-05-14T14:21:07.365Z,96291.00
2023-05-14T14:22:08.764Z,96290.13
2023-05-14T14:23:10.238Z,96295.53
2023-05-14T14:24:11.597Z,96293.00
2023-05-14T14:25:13.278Z,96293.59
2023-05-14T14:26:14.783Z,96295.81
2023-05-14T14:27:16.300Z,96286.78
2023-05-14T14:28:18.880Z,96291.16
2023-05-14T14:29:22.054Z,96286.50
2023-05-14T14:30:23.493Z,96257.63
2023-05-14T14:31:25.075Z,96278.09
2023-05-14T14:32:26.726Z,96284.13
2023-05-14T14:33:28.389Z,96283.16
2023-05-14T14:34:29.818Z,96286.13
2023-05-14T14:35:32.795Z,96284.63
2023-05-14T14:36:34.187Z,96291.75
2023-05-14T14:37:35.582Z,96286.03
2023-05-14T14:38:37.495Z,96290.94
2023-05-14T14:39:38.879Z,96284.78
2023-05-14T14:40:40.353Z,96289.97
2023-05-14T14:41:41.688Z,96289.88
2023-05-14T14:42:43.610Z,96292.16
2023-05-14T14:43:45.147Z,96288.00
2023-05-14T14:44:46.540Z,96281.56
2023-05-14T14:45:48.978Z,96285.53
2023-05-14T14:46:50.786Z,96284.34
2023-05-14T14:47:52.190Z,96284.34
2023-05-14T14:48:53.575Z,96279.22
2023-05-14T14:49:54.946Z,96273.84
2023-05-14T14:50:56.566Z,96278.59
2023-05-14T14:51:58.158Z,96272.28
2023-05-14T14:52:59.531Z,96271.53
2023-05-14T14:54:00.927Z,96276.47
2023-05-14T14:55:02.345Z,96282.44
2023-05-14T14:56:04.257Z,96273.06
2023-05-14T14:57:05.868Z,96274.88
2023-05-14T14:58:07.439Z,96276.69
2023-05-14T14:59:08.987Z,96269.31
2023-05-14T15:00:11.058Z,96276.28
2023-05-14T15:01:12.492Z,96275.13
2023-05-14T15:02:14.130Z,96276.53
2023-05-14T15:03:15.732Z,96278.78
2023-05-14T15:04:17.268Z,96278.06
2023-05-14T15:05:18.954Z,96263.13
2023-05-14T15:06:20.360Z,96272.16
2023-05-14T15:07:22.562Z,96265.88
2023-05-14T15:08:27.751Z,96273.38
2023-05-14T15:09:29.809Z,96260.63
2023-05-14T15:10:32.174Z,96266.38
2023-05-14T15:11:35.513Z,96272.78
2023-05-14T15:12:38.280Z,96273.00
2023-05-14T15:13:41.696Z,96271.66
2023-05-14T15:14:43.353Z,96269.25
2023-05-14T15:15:44.759Z,96265.22
2023-05-14T15:16:47.189Z,96269.25
2023-05-14T15:17:50.387Z,96266.75
2023-05-14T15:18:51.978Z,96264.47
2023-05-14T15:19:53.677Z,96266.81
2023-05-14T15:20:56.604Z,96274.44
2023-05-14T15:21:58.358Z,96275.16
2023-05-14T15:22:59.738Z,96274.41
2023-05-14T15:24:03.674Z,96265.25
2023-05-14T15:25:05.492Z,96278.22
2023-05-14T15:26:06.860Z,96282.25
2023-05-14T15:27:08.211Z,96272.50
2023-05-14T15:28:09.656Z,96266.97
2023-05-14T15:29:11.200Z,96257.50
2023-05-14T15:30:13.450Z,96270.66
2023-05-14T15:31:14.932Z,96269.41
2023-05-14T15:32:17.115Z,96275.63
2023-05-14T15:33:19.641Z,96269.69
2023-05-14T15:34:21.373Z,96266.88
2023-05-14T15:35:23.036Z,96267.81
2023-05-14T15:36:24.579Z,96264.22
2023-05-14T15:37:26.631Z,96265.56
2023-05-14T15:38:28.233Z,96267.47
2023-05-14T15:39:31.451Z,96254.06
2023-05-14T15:40:34.857Z,96265.19
2023-05-14T15:41:36.384Z,96258.22
2023-05-14T15:42:39.584Z,96264.38
2023-05-14T15:43:40.967Z,96255.94
2023-05-14T15:44:42.598Z,96261.94
2023-05-14T15:45:45.589Z,96252.16
2023-05-14T15:46:47.170Z,96263.63
2023-05-14T15:47:48.620Z,96260.13
2023-05-14T15:48:50.069Z,96252.59
2023-05-14T15:49:51.430Z,96255.81
2023-05-14T15:50:53.208Z,96250.16
2023-05-14T15:51:54.843Z,96247.97
2023-05-14T15:52:56.354Z,96247.41
2023-05-14T15:53:57.791Z,96244.94
2023-05-14T15:54:59.555Z,96244.69
2023-05-14T15:56:01.068Z,96245.34
2023-05-14T15:57:02.402Z,96238.66
2023-05-14T15:58:03.854Z,96238.06
2023-05-14T15:59:05.504Z,96239.53
2023-05-14T16:00:10.911Z,96246.41
2023-05-14T16:01:12.606Z,96241.78
2023-05-14T16:02:15.077Z,96248.16
2023-05-14T16:03:17.491Z,96247.91
2023-05-14T16:04:19.061Z,96237.69
2023-05-14T16:05:20.514Z,96238.22
2023-05-14T16:06:21.965Z,96240.03
2023-05-14T16:07:23.348Z,96242.09
2023-05-14T16:08:24.718Z,96253.06
2023-05-14T16:09:26.747Z,96246.16
2023-05-14T16:10:28.186Z,96240.31
2023-05-14T16:11:30.331Z,96241.50
2023-05-14T16:12:31.782Z,96240.31
2023-05-14T16:13:33.924Z,96240.28
2023-05-14T16:14:36.107Z,96241.84
2023-05-14T16:15:37.654Z,96245.56
2023-05-14T16:16:39.173Z,96246.06
2023-05-14T16:17:40.879Z,96249.44
2023-05-14T16:18:43.242Z,96246.94
2023-05-14T16:19:44.768Z,96247.47
2023-05-14T16:20:46.247Z,96237.66
2023-05-14T16:21:47.916Z,96249.59
2023-05-14T16:22:49.345Z,96249.25
2023-05-14T16:23:50.964Z,96243.63
2023-05-14T16:24:52.310Z,96253.63
2023-05-14T16:25:53.692Z,96250.69
2023-05-14T16:26:55.406Z,96245.50
2023-05-14T16:27:56.999Z,96254.03
2023-05-14T16:28:58.441Z,96250.47
2023-05-14T16:29:59.948Z,96238.91
2023-05-14T16:31:03.570Z,96243.63
2023-05-14T16:32:05.798Z,96244.34
2023-05-14T16:33:07.303Z,96248.50
2023-05-14T16:34:08.753Z,96247.94
2023-05-14T16:35:10.124Z,96243.31
2023-05-14T16:36:11.716Z,96242.00
2023-05-14T16:37:13.842Z,96244.25
2023-05-14T16:38:15.396Z,96240.78
2023-05-14T16:39:17.378Z,96232.81
2023-05-14T16:40:19.654Z,96242.75
2023-05-14T16:41:21.572Z,96249.66
2023-05-14T16:42:22.916Z,96240.03
2023-05-14T16:43:24.304Z,96246.16
2023-05-14T16:44:25.802Z,96242.81
2023-05-14T16:45:27.426Z,96252.75
2023-05-14T16:46:29.185Z,96251.47
2023-05-14T16:47:31.011Z,96248.75
2023-05-14T16:48:32.410Z,96244.19
2023-05-14T16:49:33.924Z,96244.16
2023-05-14T16:50:35.421Z,96248.06
2023-05-14T16:51:42.137Z,96244.66
2023-05-14T16:52:43.551Z,96224.09
2023-05-14T16:53:44.987Z,96235.75
2023-05-14T16:54:46.520Z,96240.69
2023-05-14T16:55:48.100Z,96246.16
2023-05-14T16:56:49.563Z,96247.19
2023-05-14T16:57:51.145Z,96238.28
2023-05-14T16:58:52.522Z,96239.53
2023-05-14T16:59:53.979Z,96227.84
2023-05-14T17:00:55.534Z,96232.25
2023-05-14T17:01:56.978Z,96235.84
2023-05-14T17:02:58.468Z,96232.22
2023-05-14T17:03:59.886Z,96228.44
2023-05-14T17:05:01.461Z,96236.09
2023-05-14T17:06:03.137Z,96237.59
2023-05-14T17:07:05.477Z,96235.91
2023-05-14T17:08:06.925Z,96223.41
2023-05-14T17:09:08.331Z,96230.28
2023-05-14T17:10:10.168Z,96235.97
2023-05-14T17:11:11.541Z,96227.44
2023-05-14T17:12:13.735Z,96236.75
2023-05-14T17:13:15.282Z,96237.03
2023-05-14T17:14:16.678Z,96235.34
2023-05-14T17:15:18.406Z,96239.09
2023-05-14T17:16:21.950Z,96236.91
2023-05-14T17:17:23.523Z,96238.69
2023-05-14T17:18:25.061Z,96239.88
2023-05-14T17:19:26.417Z,96236.53
2023-05-14T17:20:28.565Z,96241.63
2023-05-14T17:21:30.097Z,96243.06
2023-05-14T17:22:32.223Z,96254.50
2023-05-14T17:23:33.774Z,96248.41
2023-05-14T17:24:36.431Z,96247.94
2023-05-14T17:25:37.893Z,96253.63
2023-05-14T17:26:39.337Z,96253.66
2023-05-14T17:27:40.745Z,96245.34
2023-05-14T17:28:42.298Z,96245.09
2023-05-14T17:29:44.362Z,96245.34
2023-05-14T17:30:46.087Z,96247.97
2023-05-14T17:31:48.470Z,96247.75
2023-05-14T17:32:51.166Z,96251.13
2023-05-14T17:33:52.742Z,96253.50
2023-05-14T17:34:54.133Z,96255.34
2023-05-14T17:35:55.591Z,96248.72
2023-05-14T17:36:57.071Z,96251.38
2023-05-14T17:37:59.956Z,96254.97
2023-05-14T17:39:01.984Z,96255.69
2023-05-14T17:40:04.677Z,96258.81
2023-05-14T17:41:06.729Z,96252.44
2023-05-14T17:42:09.022Z,96262.44
2023-05-14T17:43:10.774Z,96261.69
2023-05-14T17:44:13.174Z,96248.84
2023-05-14T17:45:15.409Z,96259.50
